createdAt,value
2023-05-18T00:00:59.852Z,13.83
2023-05-18T00:01:59.790Z,13.79
2023-05-18T00:02:38.797Z,13.80
2023-05-18T00:03:38.827Z,13.87
2023-05-18T00:04:38.752Z,13.87
2023-05-18T00:05:59.589Z,13.79
2023-05-18T00:06:59.507Z,13.83
2023-05-18T00:07:38.489Z,13.81
2023-05-18T00:08:38.600Z,13.79
2023-05-18T00:09:38.380Z,13.81
2023-05-18T00:10:59.284Z,13.80
2023-05-18T00:11:59.279Z,13.74
2023-05-18T00:12:38.187Z,13.73
2023-05-18T00:13:38.152Z,13.71
2023-05-18T00:14:38.080Z,13.70
2023-05-18T00:15:59.078Z,13.73
2023-05-18T00:16:58.964Z,13.76
2023-05-18T00:17:38.975Z,13.77
2023-05-18T00:18:37.901Z,13.69
2023-05-18T00:19:37.829Z,13.76
2023-05-18T00:20:58.863Z,13.77
2023-05-18T00:21:58.710Z,13.70
2023-05-18T00:22:37.652Z,13.69
2023-05-18T00:23:37.617Z,13.76
2023-05-18T00:24:37.543Z,13.77
2023-05-18T00:25:58.473Z,13.77
2023-05-18T00:26:58.421Z,13.69
2023-05-18T00:27:37.364Z,13.77
2023-05-18T00:28:37.321Z,13.70
2023-05-18T00:29:37.273Z,13.59
2023-05-18T00:30:58.197Z,13.62
2023-05-18T00:31:58.254Z,13.71
2023-05-18T00:32:37.126Z,13.63
2023-05-18T00:33:37.029Z,13.63
2023-05-18T00:34:38.912Z,13.69
2023-05-18T00:35:57.905Z,13.62
2023-05-18T00:36:57.860Z,13.73
2023-05-18T00:37:36.816Z,13.65
2023-05-18T00:38:37.954Z,13.63
2023-05-18T00:39:36.749Z,13.67
2023-05-18T00:41:00.512Z,13.67
2023-05-18T00:41:57.605Z,13.69
2023-05-18T00:42:36.548Z,13.69
2023-05-18T00:43:36.490Z,13.62
2023-05-18T00:44:36.418Z,13.69
2023-05-18T00:45:57.403Z,13.59
2023-05-18T00:46:57.328Z,13.54
2023-05-18T00:47:36.304Z,13.61
2023-05-18T00:48:36.218Z,13.55
2023-05-18T00:49:36.160Z,13.52
2023-05-18T00:50:57.098Z,13.55
2023-05-18T00:51:57.043Z,13.52
2023-05-18T00:52:35.988Z,13.55
2023-05-18T00:53:35.948Z,13.62
2023-05-18T00:54:35.859Z,13.58
2023-05-18T00:55:56.826Z,13.62
2023-05-18T00:56:56.746Z,13.59
2023-05-18T00:57:35.700Z,13.62
2023-05-18T00:58:35.655Z,13.58
2023-05-18T00:59:35.601Z,13.54
2023-05-18T01:00:56.574Z,13.59
2023-05-18T01:01:56.502Z,13.58
2023-05-18T01:02:35.489Z,13.58
2023-05-18T01:03:35.460Z,13.56
2023-05-18T01:04:35.316Z,13.54
2023-05-18T01:05:56.266Z,13.47
2023-05-18T01:06:56.170Z,13.58
2023-05-18T01:07:35.168Z,13.51
2023-05-18T01:08:35.098Z,13.51
2023-05-18T01:09:35.034Z,13.49
2023-05-18T01:10:56.004Z,13.54
2023-05-18T01:11:55.940Z,13.51
2023-05-18T01:12:34.883Z,13.51
2023-05-18T01:13:34.835Z,13.44
2023-05-18T01:14:34.758Z,13.43
2023-05-18T01:15:55.704Z,13.47
2023-05-18T01:16:55.672Z,13.47
2023-05-18T01:17:34.632Z,13.44
2023-05-18T01:18:34.599Z,13.47
2023-05-18T01:19:34.483Z,13.46
2023-05-18T01:20:55.435Z,13.33
2023-05-18T01:21:55.367Z,13.41
2023-05-18T01:22:34.328Z,13.44
2023-05-18T01:23:34.276Z,13.40
2023-05-18T01:24:34.213Z,13.40
2023-05-18T01:25:55.153Z,13.44
2023-05-18T01:26:55.090Z,13.37
2023-05-18T01:27:34.064Z,13.41
2023-05-18T01:28:33.994Z,13.37
2023-05-18T01:29:33.951Z,13.38
2023-05-18T01:30:54.899Z,13.41
2023-05-18T01:31:54.819Z,13.38
2023-05-18T01:32:33.843Z,13.32
2023-05-18T01:33:33.730Z,13.43
2023-05-18T01:34:33.651Z,13.43
2023-05-18T01:35:54.595Z,13.36
2023-05-18T01:36:54.521Z,13.38
2023-05-18T01:37:33.490Z,13.33
2023-05-18T01:38:33.419Z,13.33
2023-05-18T01:39:33.388Z,13.37
2023-05-18T01:40:54.300Z,13.37
2023-05-18T01:41:54.280Z,13.27
2023-05-18T01:42:33.197Z,13.32
2023-05-18T01:43:33.172Z,13.38
2023-05-18T01:44:33.114Z,13.32
2023-05-18T01:45:54.041Z,13.33
2023-05-18T01:46:54.042Z,13.32
2023-05-18T01:47:32.980Z,13.27
2023-05-18T01:48:32.878Z,13.21
2023-05-18T01:49:32.831Z,13.36
2023-05-18T01:50:53.749Z,13.29
2023-05-18T01:51:53.700Z,13.21
2023-05-18T01:52:32.645Z,13.22
2023-05-18T01:53:32.606Z,13.24
2023-05-18T01:54:32.553Z,13.33
2023-05-18T01:55:53.475Z,13.27
2023-05-18T01:56:53.416Z,13.29
2023-05-18T01:57:32.373Z,13.21
2023-05-18T01:58:32.317Z,13.27
2023-05-18T01:59:32.245Z,13.21
2023-05-18T02:00:53.199Z,13.25
2023-05-18T02:01:59.401Z,13.25
2023-05-18T02:02:32.194Z,13.24
2023-05-18T02:03:32.104Z,13.20
2023-05-18T02:04:31.983Z,13.22
2023-05-18T02:05:52.909Z,13.27
2023-05-18T02:06:52.897Z,13.18
2023-05-18T02:07:31.806Z,13.21
2023-05-18T02:08:31.775Z,13.24
2023-05-18T02:09:31.711Z,13.21
2023-05-18T02:10:52.678Z,13.18
2023-05-18T02:11:52.578Z,13.17
2023-05-18T02:12:31.555Z,13.12
2023-05-18T02:13:31.477Z,13.12
2023-05-18T02:14:31.431Z,13.18
2023-05-18T02:15:52.401Z,13.12
2023-05-18T02:16:52.297Z,13.20
2023-05-18T02:17:31.258Z,13.18
2023-05-18T02:18:31.200Z,13.14
2023-05-18T02:19:31.194Z,13.20
2023-05-18T02:20:52.088Z,13.14
2023-05-18T02:21:52.002Z,13.15
2023-05-18T02:22:30.979Z,13.09
2023-05-18T02:23:30.910Z,13.17
2023-05-18T02:24:30.878Z,13.07
2023-05-18T02:25:51.797Z,13.14
2023-05-18T02:26:51.721Z,13.12
2023-05-18T02:27:30.687Z,13.12
2023-05-18T02:28:30.637Z,13.17
2023-05-18T02:29:30.576Z,13.00
2023-05-18T02:30:51.516Z,13.02
2023-05-18T02:31:51.497Z,13.02
2023-05-18T02:32:30.431Z,13.03
2023-05-18T02:33:30.358Z,12.99
2023-05-18T02:34:30.302Z,13.02
2023-05-18T02:35:51.218Z,13.06
2023-05-18T02:36:51.197Z,13.09
2023-05-18T02:37:30.144Z,13.07
2023-05-18T02:38:30.159Z,13.04
2023-05-18T02:39:30.032Z,13.00
2023-05-18T02:40:50.948Z,13.06
2023-05-18T02:41:50.903Z,12.99
2023-05-18T02:42:29.857Z,13.09
2023-05-18T02:43:29.797Z,13.00
2023-05-18T02:44:29.758Z,13.03
2023-05-18T02:45:50.720Z,12.96
2023-05-18T02:46:50.630Z,13.06
2023-05-18T02:47:29.722Z,12.95
2023-05-18T02:48:29.514Z,12.97
2023-05-18T02:49:29.471Z,12.93
2023-05-18T02:50:50.419Z,12.97
2023-05-18T02:51:50.347Z,12.97
2023-05-18T02:52:29.307Z,12.95
2023-05-18T02:53:29.247Z,13.04
2023-05-18T02:54:29.186Z,12.99
2023-05-18T02:55:50.118Z,12.96
2023-05-18T02:56:50.059Z,13.00
2023-05-18T02:57:29.029Z,12.95
2023-05-18T02:58:28.948Z,12.97
2023-05-18T02:59:28.908Z,12.93
2023-05-18T03:00:49.868Z,12.96
2023-05-18T03:01:49.837Z,12.96
2023-05-18T03:02:28.783Z,12.99
2023-05-18T03:03:28.738Z,12.79
2023-05-18T03:04:28.617Z,12.81
2023-05-18T03:05:49.564Z,12.88
2023-05-18T03:06:49.496Z,12.82
2023-05-18T03:07:28.466Z,12.93
2023-05-18T03:08:28.394Z,12.84
2023-05-18T03:09:28.363Z,12.87
2023-05-18T03:10:49.304Z,12.81
2023-05-18T03:11:49.230Z,12.85
2023-05-18T03:12:28.184Z,12.84
2023-05-18T03:13:30.057Z,12.82
2023-05-18T03:14:28.073Z,12.77
2023-05-18T03:15:49.019Z,12.77
2023-05-18T03:16:49.015Z,12.82
2023-05-18T03:17:27.936Z,12.84
2023-05-18T03:18:27.856Z,12.85
2023-05-18T03:19:27.777Z,12.79
2023-05-18T03:20:48.734Z,12.78
2023-05-18T03:21:48.668Z,12.84
2023-05-18T03:22:27.644Z,12.85
2023-05-18T03:23:27.563Z,12.82
2023-05-18T03:24:27.531Z,12.85
2023-05-18T03:25:48.441Z,12.82
2023-05-18T03:26:48.426Z,12.88
2023-05-18T03:27:27.339Z,12.70
2023-05-18T03:28:27.354Z,12.79
2023-05-18T03:29:28.244Z,12.81
2023-05-18T03:30:48.170Z,12.88
2023-05-18T03:31:48.154Z,12.79
2023-05-18T03:32:27.105Z,12.79
2023-05-18T03:33:27.014Z,12.88
2023-05-18T03:34:26.947Z,12.79
2023-05-18T03:35:48.698Z,12.84
2023-05-18T03:36:47.839Z,12.70
2023-05-18T03:37:26.792Z,12.81
2023-05-18T03:38:26.735Z,12.75
2023-05-18T03:39:26.670Z,12.82
2023-05-18T03:40:47.595Z,12.77
2023-05-18T03:41:47.555Z,12.78
2023-05-18T03:42:26.513Z,12.79
2023-05-18T03:43:26.431Z,12.75
2023-05-18T03:44:26.414Z,12.81
2023-05-18T03:45:47.321Z,12.79
2023-05-18T03:46:47.320Z,12.81
2023-05-18T03:47:26.208Z,12.75
2023-05-18T03:48:26.168Z,12.77
2023-05-18T03:49:26.110Z,12.81
2023-05-18T03:50:47.041Z,12.84
2023-05-18T03:51:47.059Z,12.82
2023-05-18T03:52:25.946Z,12.74
2023-05-18T03:53:25.881Z,12.71
2023-05-18T03:54:25.847Z,12.74
2023-05-18T03:55:46.791Z,12.74
2023-05-18T03:56:46.716Z,12.66
2023-05-18T03:57:25.678Z,12.64
2023-05-18T03:58:25.609Z,12.75
2023-05-18T03:59:25.547Z,12.81
2023-05-18T04:00:46.489Z,12.75
2023-05-18T04:01:46.449Z,12.74
2023-05-18T04:02:25.457Z,12.78
2023-05-18T04:03:25.380Z,12.74
2023-05-18T04:04:25.298Z,12.70
2023-05-18T04:05:46.231Z,12.74
2023-05-18T04:06:46.152Z,12.70
2023-05-18T04:07:25.101Z,12.69
2023-05-18T04:08:25.049Z,12.63
2023-05-18T04:09:24.994Z,12.69
2023-05-18T04:10:45.933Z,12.74
2023-05-18T04:11:45.860Z,12.67
2023-05-18T04:12:24.822Z,12.67
2023-05-18T04:13:24.801Z,12.64
2023-05-18T04:14:24.721Z,12.56
2023-05-18T04:15:45.625Z,12.56
2023-05-18T04:16:45.637Z,12.57
2023-05-18T04:17:24.541Z,12.57
2023-05-18T04:18:24.473Z,12.74
2023-05-18T04:19:24.448Z,12.63
2023-05-18T04:20:45.378Z,12.69
2023-05-18T04:21:45.286Z,12.67
2023-05-18T04:22:24.249Z,12.59
2023-05-18T04:23:24.209Z,12.66
2023-05-18T04:24:24.140Z,12.62
2023-05-18T04:25:45.122Z,12.60
2023-05-18T04:26:45.060Z,12.62
2023-05-18T04:27:23.980Z,12.57
2023-05-18T04:28:23.925Z,12.64
2023-05-18T04:29:23.863Z,12.60
2023-05-18T04:30:44.799Z,12.66
2023-05-18T04:31:44.891Z,12.59
2023-05-18T04:32:23.825Z,12.59
2023-05-18T04:33:23.639Z,12.60
2023-05-18T04:34:23.589Z,12.57
2023-05-18T04:35:44.503Z,12.60
2023-05-18T04:36:44.479Z,12.59
2023-05-18T04:37:23.422Z,12.59
2023-05-18T04:38:23.361Z,12.59
2023-05-18T04:39:23.301Z,12.63
2023-05-18T04:40:44.243Z,12.57
2023-05-18T04:41:44.188Z,12.57
2023-05-18T04:42:23.129Z,12.56
2023-05-18T04:43:23.063Z,12.59
2023-05-18T04:44:23.040Z,12.59
2023-05-18T04:45:43.986Z,12.54
2023-05-18T04:46:43.910Z,12.57
2023-05-18T04:47:22.856Z,12.54
2023-05-18T04:48:22.798Z,12.57
2023-05-18T04:49:22.736Z,12.57
2023-05-18T04:50:43.685Z,12.57
2023-05-18T04:51:43.630Z,12.60
2023-05-18T04:52:22.585Z,12.59
2023-05-18T04:53:22.526Z,12.57
2023-05-18T04:54:22.464Z,12.54
2023-05-18T04:55:43.374Z,12.52
2023-05-18T04:56:43.329Z,12.48
2023-05-18T04:57:22.292Z,12.62
2023-05-18T04:58:22.223Z,12.57
2023-05-18T04:59:22.225Z,12.59
2023-05-18T05:00:43.108Z,12.62
2023-05-18T05:01:43.115Z,12.56
2023-05-18T05:02:22.124Z,12.62
2023-05-18T05:03:22.006Z,12.57
2023-05-18T05:04:21.921Z,12.59
2023-05-18T05:05:42.835Z,12.57
2023-05-18T05:06:42.765Z,12.57
2023-05-18T05:07:21.728Z,12.59
2023-05-18T05:08:21.683Z,12.56
2023-05-18T05:09:21.614Z,12.56
2023-05-18T05:10:42.547Z,12.59
2023-05-18T05:11:42.486Z,12.62
2023-05-18T05:12:21.445Z,12.56
2023-05-18T05:13:21.392Z,12.54
2023-05-18T05:14:21.344Z,12.57
2023-05-18T05:15:42.312Z,12.59
2023-05-18T05:16:42.219Z,12.57
2023-05-18T05:17:21.174Z,12.62
2023-05-18T05:18:21.122Z,12.57
2023-05-18T05:19:21.103Z,12.66
2023-05-18T05:20:41.974Z,12.60
2023-05-18T05:21:41.923Z,12.59
2023-05-18T05:22:35.611Z,12.57
2023-05-18T05:23:21.581Z,12.63
2023-05-18T05:24:20.762Z,12.60
2023-05-18T05:25:41.684Z,12.60
2023-05-18T05:26:41.645Z,12.66
2023-05-18T05:27:20.595Z,12.57
2023-05-18T05:28:20.565Z,12.66
2023-05-18T05:29:20.498Z,12.57
2023-05-18T05:30:41.423Z,12.56
2023-05-18T05:31:41.399Z,12.63
2023-05-18T05:32:20.428Z,12.60
2023-05-18T05:33:20.256Z,12.62
2023-05-18T05:34:20.214Z,12.64
2023-05-18T05:35:41.134Z,12.56
2023-05-18T05:36:41.090Z,12.66
2023-05-18T05:37:20.016Z,12.62
2023-05-18T05:38:19.979Z,12.56
2023-05-18T05:39:19.916Z,12.70
2023-05-18T05:40:40.848Z,12.59
2023-05-18T05:41:40.805Z,12.62
2023-05-18T05:42:19.763Z,12.63
2023-05-18T05:43:19.698Z,12.69
2023-05-18T05:44:19.641Z,12.63
2023-05-18T05:45:40.556Z,12.63
2023-05-18T05:46:40.574Z,12.66
2023-05-18T05:47:19.480Z,12.66
2023-05-18T05:48:19.461Z,12.66
2023-05-18T05:49:19.365Z,12.71
2023-05-18T05:50:42.143Z,12.70
2023-05-18T05:51:40.255Z,12.67
2023-05-18T05:52:19.197Z,12.67
2023-05-18T05:53:19.137Z,12.67
2023-05-18T05:54:19.085Z,12.60
2023-05-18T05:55:40.012Z,12.67
2023-05-18T05:56:39.971Z,12.66
2023-05-18T05:57:18.912Z,12.67
2023-05-18T05:58:18.856Z,12.66
2023-05-18T05:59:18.791Z,12.71
2023-05-18T06:00:39.723Z,12.75
2023-05-18T06:01:39.672Z,12.66
2023-05-18T06:02:18.734Z,12.67
2023-05-18T06:03:18.678Z,12.67
2023-05-18T06:04:18.604Z,12.64
2023-05-18T06:05:40.103Z,12.67
2023-05-18T06:06:39.398Z,12.71
2023-05-18T06:07:18.356Z,12.75
2023-05-18T06:08:18.313Z,12.71
2023-05-18T06:09:18.241Z,12.81
2023-05-18T06:10:39.180Z,12.70
2023-05-18T06:11:39.114Z,12.71
2023-05-18T06:12:18.072Z,12.75
2023-05-18T06:13:18.009Z,12.78
2023-05-18T06:14:18.056Z,12.74
2023-05-18T06:15:38.902Z,12.74
2023-05-18T06:16:38.843Z,12.71
2023-05-18T06:17:17.792Z,12.75
2023-05-18T06:18:17.754Z,12.71
2023-05-18T06:19:17.877Z,12.78
2023-05-18T06:20:38.615Z,12.74
2023-05-18T06:21:38.556Z,12.78
2023-05-18T06:22:17.508Z,12.82
2023-05-18T06:23:17.444Z,12.77
2023-05-18T06:24:17.397Z,12.77
2023-05-18T06:25:38.314Z,12.79
2023-05-18T06:26:38.270Z,12.79
2023-05-18T06:27:17.228Z,12.79
2023-05-18T06:28:17.146Z,12.71
2023-05-18T06:29:17.140Z,12.74
2023-05-18T06:30:38.046Z,12.78
2023-05-18T06:31:38.040Z,12.78
2023-05-18T06:32:16.985Z,12.71
2023-05-18T06:33:17.006Z,12.77
2023-05-18T06:34:16.841Z,12.77
2023-05-18T06:35:37.765Z,12.82
2023-05-18T06:36:37.710Z,12.74
2023-05-18T06:37:16.665Z,12.85
2023-05-18T06:38:16.613Z,12.84
2023-05-18T06:39:16.536Z,12.74
2023-05-18T06:40:37.469Z,12.71
2023-05-18T06:41:37.421Z,12.82
2023-05-18T06:42:16.392Z,12.84
2023-05-18T06:43:16.328Z,12.79
2023-05-18T06:44:16.248Z,12.75
2023-05-18T06:45:37.757Z,12.82
2023-05-18T06:46:37.259Z,12.81
2023-05-18T06:47:16.104Z,12.82
2023-05-18T06:48:16.025Z,12.87
2023-05-18T06:49:15.974Z,12.84
2023-05-18T06:50:36.904Z,12.82
2023-05-18T06:51:36.871Z,12.88
2023-05-18T06:52:15.824Z,12.85
2023-05-18T06:53:15.752Z,12.82
2023-05-18T06:54:15.694Z,12.82
2023-05-18T06:55:36.643Z,12.93
2023-05-18T06:56:36.584Z,12.87
2023-05-18T06:57:15.553Z,12.85
2023-05-18T06:58:15.488Z,12.85
2023-05-18T06:59:15.429Z,12.87
2023-05-18T07:00:36.359Z,12.93
2023-05-18T07:01:36.364Z,12.88
2023-05-18T07:02:15.265Z,12.85
2023-05-18T07:03:15.250Z,12.85
2023-05-18T07:04:15.173Z,12.87
2023-05-18T07:05:39.207Z,12.88
2023-05-18T07:06:36.040Z,12.93
2023-05-18T07:07:14.987Z,12.97
2023-05-18T07:08:14.934Z,12.87
2023-05-18T07:09:14.856Z,12.97
2023-05-18T07:10:35.792Z,12.96
2023-05-18T07:11:38.608Z,12.89
2023-05-18T07:12:14.700Z,12.95
2023-05-18T07:13:14.673Z,13.00
2023-05-18T07:14:14.576Z,12.96
2023-05-18T07:15:35.607Z,13.00
2023-05-18T07:16:35.707Z,12.95
2023-05-18T07:17:14.412Z,13.00
2023-05-18T07:18:14.416Z,12.99
2023-05-18T07:19:14.345Z,12.97
2023-05-18T07:20:35.243Z,12.96
2023-05-18T07:21:35.177Z,12.95
2023-05-18T07:22:14.141Z,12.99
2023-05-18T07:23:14.088Z,13.00
2023-05-18T07:24:20.612Z,12.97
2023-05-18T07:25:34.948Z,12.97
2023-05-18T07:26:34.901Z,12.92
2023-05-18T07:27:13.859Z,13.02
2023-05-18T07:28:13.804Z,13.02
2023-05-18T07:29:13.745Z,12.93
2023-05-18T07:30:34.662Z,13.09
2023-05-18T07:31:34.653Z,13.04
2023-05-18T07:32:13.567Z,13.02
2023-05-18T07:33:13.568Z,13.07
2023-05-18T07:34:13.498Z,13.03
2023-05-18T07:35:34.397Z,13.03
2023-05-18T07:36:34.341Z,13.03
2023-05-18T07:37:13.287Z,13.00
2023-05-18T07:38:13.224Z,13.06
2023-05-18T07:39:13.183Z,13.07
2023-05-18T07:40:34.132Z,13.02
2023-05-18T07:41:34.051Z,13.02
2023-05-18T07:42:13.071Z,13.03
2023-05-18T07:43:12.941Z,13.06
2023-05-18T07:44:12.879Z,13.02
2023-05-18T07:45:34.248Z,13.17
2023-05-18T07:46:33.802Z,13.17
2023-05-18T07:47:12.742Z,13.04
2023-05-18T07:48:12.699Z,13.17
2023-05-18T07:49:12.616Z,13.21
2023-05-18T07:50:33.528Z,13.07
2023-05-18T07:51:33.481Z,13.07
2023-05-18T07:52:12.448Z,13.15
2023-05-18T07:53:12.397Z,13.09
2023-05-18T07:54:12.313Z,13.15
2023-05-18T07:55:33.453Z,13.11
2023-05-18T07:56:33.206Z,13.15
2023-05-18T07:57:12.147Z,13.14
2023-05-18T07:58:12.096Z,13.09
2023-05-18T07:59:12.063Z,13.12
2023-05-18T08:00:32.994Z,13.17
2023-05-18T08:01:32.931Z,13.11
2023-05-18T08:02:11.912Z,13.14
2023-05-18T08:03:12.057Z,13.17
2023-05-18T08:04:11.878Z,13.24
2023-05-18T08:05:32.928Z,13.15
2023-05-18T08:06:32.672Z,13.21
2023-05-18T08:07:11.615Z,13.20
2023-05-18T08:08:11.538Z,13.21
2023-05-18T08:09:11.491Z,13.21
2023-05-18T08:10:32.406Z,13.24
2023-05-18T08:11:32.347Z,13.25
2023-05-18T08:12:11.328Z,13.22
2023-05-18T08:13:13.158Z,13.20
2023-05-18T08:14:11.223Z,13.20
2023-05-18T08:15:32.353Z,13.25
2023-05-18T08:16:32.081Z,13.25
2023-05-18T08:17:11.089Z,13.25
2023-05-18T08:18:11.060Z,13.22
2023-05-18T08:19:11.028Z,13.30
2023-05-18T08:20:31.933Z,13.30
2023-05-18T08:21:31.809Z,13.37
2023-05-18T08:22:10.769Z,13.36
2023-05-18T08:23:10.697Z,13.32
2023-05-18T08:24:10.643Z,13.29
2023-05-18T08:25:31.762Z,13.36
2023-05-18T08:26:31.526Z,13.24
2023-05-18T08:27:10.490Z,13.37
2023-05-18T08:28:10.420Z,13.37
2023-05-18T08:29:10.460Z,13.32
2023-05-18T08:30:31.329Z,13.30
2023-05-18T08:31:31.278Z,13.25
2023-05-18T08:32:10.263Z,13.30
2023-05-18T08:33:10.185Z,13.33
2023-05-18T08:34:10.088Z,13.38
2023-05-18T08:35:31.248Z,13.40
2023-05-18T08:36:30.943Z,13.40
2023-05-18T08:37:09.918Z,13.37
2023-05-18T08:38:09.858Z,13.40
2023-05-18T08:39:09.801Z,13.38
2023-05-18T08:40:30.749Z,13.40
2023-05-18T08:41:30.666Z,13.38
2023-05-18T08:42:09.669Z,13.44
2023-05-18T08:43:09.576Z,13.43
2023-05-18T08:44:09.533Z,13.40
2023-05-18T08:45:30.713Z,13.37
2023-05-18T08:46:30.406Z,13.36
2023-05-18T08:47:09.370Z,13.41
2023-05-18T08:48:09.399Z,13.47
2023-05-18T08:49:09.318Z,13.44
2023-05-18T08:50:30.376Z,13.41
2023-05-18T08:51:30.131Z,13.49
2023-05-18T08:52:09.081Z,13.46
2023-05-18T08:53:09.025Z,13.47
2023-05-18T08:54:08.973Z,13.47
2023-05-18T08:55:30.008Z,13.47
2023-05-18T08:56:29.837Z,13.51
2023-05-18T08:57:08.818Z,13.55
2023-05-18T08:58:08.739Z,13.54
2023-05-18T08:59:08.728Z,13.51
2023-05-18T09:00:30.023Z,13.51
2023-05-18T09:01:29.810Z,13.51
2023-05-18T09:02:08.643Z,13.51
2023-05-18T09:03:08.516Z,13.61
2023-05-18T09:04:08.386Z,13.55
2023-05-18T09:05:29.638Z,13.54
2023-05-18T09:06:29.375Z,13.51
2023-05-18T09:07:08.237Z,13.58
2023-05-18T09:08:08.171Z,13.62
2023-05-18T09:09:08.135Z,13.62
2023-05-18T09:10:29.045Z,13.63
2023-05-18T09:11:29.017Z,13.63
2023-05-18T09:12:07.972Z,13.55
2023-05-18T09:13:07.894Z,13.54
2023-05-18T09:14:07.847Z,13.54
2023-05-18T09:15:28.989Z,13.59
2023-05-18T09:16:28.887Z,13.59
2023-05-18T09:17:07.686Z,13.59
2023-05-18T09:18:07.663Z,13.62
2023-05-18T09:19:07.574Z,13.61
2023-05-18T09:20:28.511Z,13.65
2023-05-18T09:21:28.470Z,13.67
2023-05-18T09:22:07.388Z,13.73
2023-05-18T09:23:07.356Z,13.67
2023-05-18T09:24:07.288Z,13.65
2023-05-18T09:25:28.442Z,13.70
2023-05-18T09:26:28.148Z,13.70
2023-05-18T09:27:07.131Z,13.76
2023-05-18T09:28:07.051Z,13.70
2023-05-18T09:29:07.018Z,13.76
2023-05-18T09:30:27.941Z,13.67
2023-05-18T09:31:28.102Z,13.63
2023-05-18T09:32:06.950Z,13.77
2023-05-18T09:33:06.813Z,13.73
2023-05-18T09:34:06.804Z,13.77
2023-05-18T09:35:27.663Z,13.69
2023-05-18T09:36:27.588Z,13.76
2023-05-18T09:37:06.568Z,13.74
2023-05-18T09:38:06.508Z,13.73
2023-05-18T09:39:06.448Z,13.81
2023-05-18T09:40:27.377Z,13.79
2023-05-18T09:41:27.344Z,13.81
2023-05-18T09:42:06.284Z,13.80
2023-05-18T09:43:06.233Z,13.81
2023-05-18T09:44:06.155Z,13.84
2023-05-18T09:45:27.115Z,13.84
2023-05-18T09:46:27.068Z,13.80
2023-05-18T09:47:06.072Z,13.81
2023-05-18T09:48:06.038Z,13.73
2023-05-18T09:49:05.943Z,13.87
2023-05-18T09:50:26.820Z,13.81
2023-05-18T09:51:26.791Z,13.84
2023-05-18T09:52:05.727Z,13.87
2023-05-18T09:53:05.693Z,13.88
2023-05-18T09:54:05.616Z,13.87
2023-05-18T09:55:26.564Z,13.81
2023-05-18T09:56:26.500Z,13.83
2023-05-18T09:58:05.401Z,13.84
2023-05-18T09:59:05.339Z,13.81
2023-05-18T10:00:26.359Z,13.81
2023-05-18T10:01:26.316Z,13.84
2023-05-18T10:02:05.183Z,13.94
2023-05-18T10:03:05.178Z,13.84
2023-05-18T10:04:05.229Z,13.83
2023-05-18T10:05:26.010Z,13.95
2023-05-18T10:06:25.974Z,13.88
2023-05-18T10:07:04.882Z,13.87
2023-05-18T10:08:04.849Z,13.91
2023-05-18T10:09:04.782Z,13.88
2023-05-18T10:10:25.718Z,13.88
2023-05-18T10:11:25.656Z,13.87
2023-05-18T10:12:04.632Z,13.91
2023-05-18T10:13:04.564Z,13.95
2023-05-18T10:14:04.503Z,13.87
2023-05-18T10:15:25.457Z,13.91
2023-05-18T10:16:25.406Z,13.91
2023-05-18T10:17:15.089Z,13.96
2023-05-18T10:18:04.324Z,13.94
2023-05-18T10:19:04.270Z,13.88
2023-05-18T10:20:25.168Z,13.94
2023-05-18T10:21:25.099Z,13.91
2023-05-18T10:22:04.047Z,13.91
2023-05-18T10:23:04.011Z,13.94
2023-05-18T10:24:03.931Z,13.89
2023-05-18T10:25:24.893Z,13.99
2023-05-18T10:26:24.825Z,13.92
2023-05-18T10:27:03.808Z,13.96
2023-05-18T10:28:03.732Z,14.01
2023-05-18T10:29:03.658Z,13.99
2023-05-18T10:30:24.637Z,14.04
2023-05-18T10:31:24.599Z,14.04
2023-05-18T10:32:06.821Z,14.09
2023-05-18T10:33:07.000Z,14.09
2023-05-18T10:34:03.400Z,14.06
2023-05-18T10:35:24.382Z,14.10
2023-05-18T10:36:24.275Z,14.04
2023-05-18T10:37:03.232Z,14.04
2023-05-18T10:38:03.190Z,14.04
2023-05-18T10:39:03.102Z,14.12
2023-05-18T10:40:24.069Z,14.09
2023-05-18T10:41:23.978Z,14.06
2023-05-18T10:42:02.959Z,14.12
2023-05-18T10:43:02.883Z,14.02
2023-05-18T10:44:02.844Z,14.12
2023-05-18T10:45:23.754Z,14.12
2023-05-18T10:46:23.755Z,14.12
2023-05-18T10:47:02.797Z,14.06
2023-05-18T10:48:02.694Z,14.10
2023-05-18T10:49:02.558Z,14.12
2023-05-18T10:50:23.508Z,14.09
2023-05-18T10:51:23.453Z,14.12
2023-05-18T10:52:02.402Z,14.13
2023-05-18T10:53:02.384Z,14.14
2023-05-18T10:54:02.310Z,14.20
2023-05-18T10:55:23.220Z,14.16
2023-05-18T10:56:23.161Z,14.14
2023-05-18T10:57:02.209Z,14.16
2023-05-18T10:58:02.052Z,14.12
2023-05-18T10:59:01.986Z,14.19
2023-05-18T11:00:22.959Z,14.19
2023-05-18T11:01:22.927Z,14.14
2023-05-18T11:02:01.953Z,14.27
2023-05-18T11:03:01.822Z,14.31
2023-05-18T11:04:01.728Z,14.20
2023-05-18T11:05:22.732Z,14.32
2023-05-18T11:06:22.593Z,14.29
2023-05-18T11:07:01.561Z,14.24
2023-05-18T11:08:01.557Z,14.24
2023-05-18T11:09:01.436Z,14.21
2023-05-18T11:10:22.401Z,14.25
2023-05-18T11:11:22.327Z,14.31
2023-05-18T11:12:01.312Z,14.27
2023-05-18T11:13:01.232Z,14.27
2023-05-18T11:14:01.178Z,14.34
2023-05-18T11:15:22.126Z,14.35
2023-05-18T11:16:22.081Z,14.32
2023-05-18T11:17:01.000Z,14.34
2023-05-18T11:18:01.000Z,14.29
2023-05-18T11:19:00.910Z,14.32
2023-05-18T11:20:21.818Z,14.35
2023-05-18T11:21:21.777Z,14.35
2023-05-18T11:22:00.718Z,14.37
2023-05-18T11:23:00.658Z,14.35
2023-05-18T11:24:00.615Z,14.35
2023-05-18T11:25:21.550Z,14.35
2023-05-18T11:26:21.569Z,14.46
2023-05-18T11:27:00.459Z,14.35
2023-05-18T11:28:00.414Z,14.38
2023-05-18T11:29:00.340Z,14.42
2023-05-18T11:30:21.316Z,14.46
2023-05-18T11:31:21.273Z,14.38
2023-05-18T11:32:01.187Z,14.35
2023-05-18T11:33:00.283Z,14.39
2023-05-18T11:34:00.091Z,14.46
2023-05-18T11:35:21.010Z,14.39
2023-05-18T11:36:20.952Z,14.49
2023-05-18T11:36:59.902Z,14.53
2023-05-18T11:37:59.852Z,14.49
2023-05-18T11:38:59.790Z,14.53
2023-05-18T11:40:20.734Z,14.49
2023-05-18T11:41:20.674Z,14.52
2023-05-18T11:41:59.640Z,14.53
2023-05-18T11:42:59.564Z,14.50
2023-05-18T11:43:59.503Z,14.52
2023-05-18T11:45:20.432Z,14.60
2023-05-18T11:46:20.374Z,14.53
2023-05-18T11:46:59.356Z,14.61
2023-05-18T11:47:59.353Z,14.56
2023-05-18T11:48:59.268Z,14.53
2023-05-18T11:50:20.157Z,14.52
2023-05-18T11:51:20.113Z,14.56
2023-05-18T11:51:59.255Z,14.57
2023-05-18T11:52:59.036Z,14.64
2023-05-18T11:53:58.966Z,14.54
2023-05-18T11:55:19.885Z,14.56
2023-05-18T11:56:19.854Z,14.61
2023-05-18T11:56:58.801Z,14.67
2023-05-18T11:57:58.746Z,14.62
2023-05-18T11:58:58.667Z,14.62
2023-05-18T12:00:19.621Z,14.57
2023-05-18T12:01:19.557Z,14.60
2023-05-18T12:01:58.553Z,14.62
2023-05-18T12:02:58.586Z,14.68
2023-05-18T12:03:58.460Z,14.65
2023-05-18T12:05:19.363Z,14.71
2023-05-18T12:06:19.292Z,14.64
2023-05-18T12:06:58.240Z,14.68
2023-05-18T12:07:58.184Z,14.72
2023-05-18T12:08:58.380Z,14.64
2023-05-18T12:10:19.094Z,14.65
2023-05-18T12:11:19.003Z,14.75
2023-05-18T12:11:57.973Z,14.67
2023-05-18T12:12:57.923Z,14.69
2023-05-18T12:13:57.892Z,14.68
2023-05-18T12:15:18.790Z,14.62
2023-05-18T12:16:18.755Z,14.80
2023-05-18T12:16:57.804Z,14.69
2023-05-18T12:17:57.694Z,14.75
2023-05-18T12:18:57.664Z,14.72
2023-05-18T12:20:18.534Z,14.75
2023-05-18T12:21:19.082Z,14.75
2023-05-18T12:21:58.976Z,14.75
2023-05-18T12:22:57.344Z,14.75
2023-05-18T12:23:57.308Z,14.80
2023-05-18T12:25:18.236Z,14.81
2023-05-18T12:26:18.192Z,14.84
2023-05-18T12:26:57.120Z,14.74
2023-05-18T12:27:57.342Z,14.80
2023-05-18T12:28:57.009Z,14.83
2023-05-18T12:30:17.999Z,14.87
2023-05-18T12:31:17.992Z,14.88
2023-05-18T12:31:56.880Z,14.72
2023-05-18T12:32:56.875Z,14.87
2023-05-18T12:33:59.038Z,14.87
2023-05-18T12:35:17.685Z,14.80
2023-05-18T12:36:17.648Z,14.88
2023-05-18T12:36:56.614Z,14.81
2023-05-18T12:37:56.540Z,14.87
2023-05-18T12:38:56.464Z,14.87
2023-05-18T12:40:17.477Z,14.91
2023-05-18T12:41:17.349Z,14.87
2023-05-18T12:41:56.325Z,14.93
2023-05-18T12:42:56.284Z,14.88
2023-05-18T12:43:56.210Z,14.91
2023-05-18T12:45:17.123Z,14.88
2023-05-18T12:46:17.119Z,14.93
2023-05-18T12:46:56.175Z,14.91
2023-05-18T12:47:56.385Z,14.86
2023-05-18T12:48:55.930Z,14.88
2023-05-18T12:50:16.855Z,14.91
2023-05-18T12:51:16.816Z,14.84
2023-05-18T12:51:55.790Z,14.86
2023-05-18T12:52:55.711Z,14.86